Time;durP1;ratioP1;P1;durP2;ratioP2;P2;SDS_P1;SDS_P2;PMS_P1;PMS_P2;Temp;Humidity;BMP_temperature;BMP_pressure;BME280_temperature;BME280_humidity;BME280_pressure;Samples;Min_cycle;Max_cycle;Signal;HPM_P1;HPM_P2
2023/02/06 00:00:52;;;;;;;0.77;0.77;;;;;;;;;;5074745;28;20063;-76
2023/02/06 00:03:21;;;;;;;2.38;1.77;;;;;;;;;;5076681;28;20477;-77
2023/02/06 00:06:00;;;;;;;1.48;1.35;;;;;;;;;;5076208;28;20055;-73
2023/02/06 00:08:29;;;;;;;3.38;1.13;;;;;;;;;;5071353;28;20056;-76
2023/02/06 00:10:58;;;;;;;1.67;0.93;;;;;;;;;;5068257;28;20107;-76
2023/02/06 00:13:26;;;;;;;2.15;1.48;;;;;;;;;;5072902;28;20080;-77
2023/02/06 00:15:54;;;;;;;0.43;0.38;;;;;;;;;;5073369;28;20076;-74
2023/02/06 00:18:23;;;;;;;1.25;1.23;;;;;;;;;;5075591;28;20043;-77
2023/02/06 00:20:51;;;;;;;0.93;0.93;;;;;;;;;;5059624;28;20425;-75
2023/02/06 00:23:21;;;;;;;1.42;1.33;;;;;;;;;;5082291;28;20054;-74
2023/02/06 00:25:49;;;;;;;0.75;0.68;;;;;;;;;;5076207;28;20064;-74
2023/02/06 00:28:17;;;;;;;2.17;1.02;;;;;;;;;;5071666;28;20045;-77
2023/02/06 00:30:47;;;;;;;1.25;1.05;;;;;;;;;;5072788;28;20053;-77
2023/02/06 00:33:15;;;;;;;1.92;1.17;;;;;;;;;;5077672;28;20078;-74
2023/02/06 00:35:44;;;;;;;0.85;0.85;;;;;;;;;;5074532;28;20082;-75
2023/02/06 00:38:12;;;;;;;1.00;1.00;;;;;;;;;;5081833;28;20516;-75
2023/02/06 00:40:42;;;;;;;2.50;1.58;;;;;;;;;;5078788;28;20040;-75
2023/02/06 00:43:10;;;;;;;2.53;0.60;;;;;;;;;;5066739;28;20048;-74
2023/02/06 00:45:39;;;;;;;0.57;0.57;;;;;;;;;;5079987;28;20044;-73
2023/02/06 00:48:08;;;;;;;0.70;0.70;;;;;;;;;;5073781;28;20569;-76
2023/02/06 00:50:37;;;;;;;3.20;0.40;;;;;;;;;;5079375;28;20048;-75
2023/02/06 00:53:05;;;;;;;1.23;0.85;;;;;;;;;;5072561;28;20045;-74
2023/02/06 00:55:33;;;;;;;1.30;0.40;;;;;;;;;;5070169;28;20044;-78
2023/02/06 00:58:04;;;;;;;3.28;1.55;;;;;;;;;;5075616;28;20045;-74
2023/02/06 01:00:32;;;;;;;1.00;0.90;;;;;;;;;;5083953;28;20053;-75
2023/02/06 01:03:00;;;;;;;5.40;0.88;;;;;;;;;;5073005;28;20055;-76
2023/02/06 01:05:29;;;;;;;1.38;1.00;;;;;;;;;;5078738;28;20083;-74
2023/02/06 01:07:57;;;;;;;6.75;0.95;;;;;;;;;;5069077;28;20135;-75
2023/02/06 01:10:26;;;;;;;1.90;1.05;;;;;;;;;;5076156;28;20059;-77
2023/02/06 01:12:54;;;;;;;1.27;0.73;;;;;;;;;;5078153;28;20053;-77
2023/02/06 01:15:23;;;;;;;3.42;1.48;;;;;;;;;;5071262;28;20048;-73
2023/02/06 01:17:52;;;;;;;1.75;1.17;;;;;;;;;;5058575;28;20061;-76
2023/02/06 01:20:21;;;;;;;2.80;0.85;;;;;;;;;;5071390;28;20040;-75
2023/02/06 01:22:50;;;;;;;1.05;1.05;;;;;;;;;;5082226;28;20483;-76
2023/02/06 01:25:18;;;;;;;1.42;1.33;;;;;;;;;;5075487;28;20044;-76
2023/02/06 01:27:46;;;;;;;0.40;0.40;;;;;;;;;;5072999;28;20052;-77
2023/02/06 01:30:15;;;;;;;4.18;0.63;;;;;;;;;;5070917;28;20468;-76
2023/02/06 01:32:45;;;;;;;1.58;0.40;;;;;;;;;;5073253;28;20045;-76
2023/02/06 01:35:13;;;;;;;1.52;1.42;;;;;;;;;;5083522;28;20055;-75
2023/02/06 01:37:42;;;;;;;2.55;1.05;;;;;;;;;;5076427;28;20052;-76
2023/02/06 01:40:13;;;;;;;2.03;0.90;;;;;;;;;;5076652;28;20130;-76
2023/02/06 01:42:41;;;;;;;0.57;0.55;;;;;;;;;;5073758;28;20057;-77
2023/02/06 01:45:28;;;;;;;0.75;0.75;;;;;;;;;;5079024;28;20074;-76
2023/02/06 01:48:01;;;;;;;1.25;1.13;;;;;;;;;;5074715;28;20052;-73
2023/02/06 01:50:32;;;;;;;1.17;1.08;;;;;;;;;;5071905;28;20067;-77
2023/02/06 01:53:00;;;;;;;0.85;0.85;;;;;;;;;;5066685;28;20059;-72
2023/02/06 01:55:29;;;;;;;1.15;1.05;;;;;;;;;;5072542;28;20045;-75
2023/02/06 01:57:57;;;;;;;0.85;0.82;;;;;;;;;;5067299;28;20059;-76
2023/02/06 02:00:26;;;;;;;5.60;1.63;;;;;;;;;;5063769;28;20094;-76
2023/02/06 02:02:54;;;;;;;1.70;1.60;;;;;;;;;;5060812;28;20087;-75
2023/02/06 02:05:24;;;;;;;3.70;2.15;;;;;;;;;;5073565;28;20041;-74
2023/02/06 02:07:59;;;;;;;2.08;0.98;;;;;;;;;;5071630;28;20044;-76
2023/02/06 02:10:29;;;;;;;1.40;0.90;;;;;;;;;;5077184;28;20093;-77
2023/02/06 02:12:57;;;;;;;1.80;1.55;;;;;;;;;;5070806;28;20051;-76
2023/02/06 02:15:31;;;;;;;0.70;0.57;;;;;;;;;;5076979;28;20054;-76
2023/02/06 02:18:03;;;;;;;2.13;1.30;;;;;;;;;;5071904;28;20125;-76
2023/02/06 02:21:08;;;;;;;2.35;1.55;;;;;;;;;;5078800;28;20044;-76
2023/02/06 02:23:40;;;;;;;0.50;0.50;;;;;;;;;;5078967;28;20041;-77
2023/02/06 02:26:27;;;;;;;2.05;1.80;;;;;;;;;;5074232;28;20405;-76
2023/02/06 02:29:10;;;;;;;2.40;0.90;;;;;;;;;;5078708;28;20050;-76
2023/02/06 02:32:05;;;;;;;1.30;0.63;;;;;;;;;;5068698;28;20056;-76
2023/02/06 02:34:46;;;;;;;2.08;1.05;;;;;;;;;;5080218;28;20048;-76
2023/02/06 02:37:18;;;;;;;2.03;1.42;;;;;;;;;;5067095;28;20056;-77
2023/02/06 02:39:48;;;;;;;1.52;1.50;;;;;;;;;;5071316;28;20052;-76
2023/02/06 02:42:21;;;;;;;1.25;1.17;;;;;;;;;;5071900;28;20056;-76
2023/02/06 02:44:51;;;;;;;1.50;0.90;;;;;;;;;;5073533;28;20047;-76
2023/02/06 02:47:22;;;;;;;4.75;1.15;;;;;;;;;;5076667;28;20056;-76
2023/02/06 02:49:52;;;;;;;0.85;0.85;;;;;;;;;;5077484;28;20051;-76
2023/02/06 02:52:20;;;;;;;3.00;1.95;;;;;;;;;;5075007;28;20048;-77
2023/02/06 02:54:48;;;;;;;3.65;1.15;;;;;;;;;;5075027;28;20044;-76
2023/02/06 02:57:21;;;;;;;2.30;1.50;;;;;;;;;;5075330;28;20059;-77
2023/02/06 02:59:50;;;;;;;1.08;0.90;;;;;;;;;;5079018;28;20126;-77
2023/02/06 03:02:19;;;;;;;1.98;1.88;;;;;;;;;;5061283;28;20052;-78
2023/02/06 03:04:49;;;;;;;2.75;1.50;;;;;;;;;;5080984;28;20048;-76
2023/02/06 03:07:25;;;;;;;1.13;0.75;;;;;;;;;;5074247;28;20052;-77
2023/02/06 03:09:58;;;;;;;4.13;1.90;;;;;;;;;;5084604;28;20127;-77
2023/02/06 03:12:30;;;;;;;1.30;1.20;;;;;;;;;;5089555;28;20079;-77
2023/02/06 03:15:00;;;;;;;2.38;1.42;;;;;;;;;;5078384;28;20056;-77
2023/02/06 03:17:31;;;;;;;1.38;1.10;;;;;;;;;;5076395;28;20135;-75
2023/02/06 03:20:00;;;;;;;1.33;1.05;;;;;;;;;;5080766;28;20132;-74
2023/02/06 03:22:30;;;;;;;1.15;1.08;;;;;;;;;;5077641;28;20048;-76
2023/02/06 03:24:58;;;;;;;3.42;0.95;;;;;;;;;;5084612;28;20052;-77
2023/02/06 03:27:28;;;;;;;1.40;1.30;;;;;;;;;;5071843;28;20045;-77
2023/02/06 03:29:56;;;;;;;1.23;1.13;;;;;;;;;;5076498;28;20048;-77
2023/02/06 03:32:25;;;;;;;1.58;1.45;;;;;;;;;;5067552;28;20058;-77
2023/02/06 03:34:56;;;;;;;1.67;1.35;;;;;;;;;;5074713;28;20053;-77
2023/02/06 03:37:25;;;;;;;2.15;1.88;;;;;;;;;;5075773;28;20413;-77
2023/02/06 03:39:55;;;;;;;2.58;1.52;;;;;;;;;;5079731;28;20055;-78
2023/02/06 03:42:23;;;;;;;2.70;1.08;;;;;;;;;;5074372;28;20083;-77
2023/02/06 03:44:53;;;;;;;2.97;1.45;;;;;;;;;;5080281;28;20063;-78
2023/02/06 03:47:22;;;;;;;2.83;1.52;;;;;;;;;;5072776;28;20044;-75
2023/02/06 03:49:51;;;;;;;1.48;1.33;;;;;;;;;;5075075;28;20044;-77
2023/02/06 03:52:21;;;;;;;0.95;0.95;;;;;;;;;;5070635;28;20040;-76
2023/02/06 03:54:51;;;;;;;3.75;1.65;;;;;;;;;;5077626;28;20044;-77
2023/02/06 03:57:22;;;;;;;1.17;1.08;;;;;;;;;;5069860;28;20044;-78
2023/02/06 03:59:50;;;;;;;0.73;0.73;;;;;;;;;;5074166;28;20061;-77
2023/02/06 04:02:26;;;;;;;1.75;1.65;;;;;;;;;;5076496;28;20110;-77
2023/02/06 04:04:55;;;;;;;0.65;0.65;;;;;;;;;;5071066;28;20084;-77
2023/02/06 04:07:25;;;;;;;0.90;0.90;;;;;;;;;;5071763;28;20064;-77
2023/02/06 04:09:54;;;;;;;1.48;1.17;;;;;;;;;;5077951;28;20048;-76
2023/02/06 04:12:24;;;;;;;1.60;1.50;;;;;;;;;;5074603;28;20059;-77
2023/02/06 04:14:53;;;;;;;1.58;1.27;;;;;;;;;;5076342;28;20048;-73
2023/02/06 04:17:21;;;;;;;2.05;1.13;;;;;;;;;;5072736;28;20040;-77
2023/02/06 04:20:10;;;;;;;2.17;0.95;;;;;;;;;;5063098;28;20040;-71
2023/02/06 04:22:39;;;;;;;1.33;1.25;;;;;;;;;;5072413;28;20064;-76
2023/02/06 04:25:07;;;;;;;6.35;1.00;;;;;;;;;;5084131;28;20071;-77
2023/02/06 04:27:37;;;;;;;0.65;0.65;;;;;;;;;;5071021;28;20052;-76
2023/02/06 04:30:06;;;;;;;1.00;0.90;;;;;;;;;;5075287;28;20048;-74
2023/02/06 04:32:34;;;;;;;3.05;1.65;;;;;;;;;;5073209;28;20171;-77
2023/02/06 04:35:02;;;;;;;0.57;0.57;;;;;;;;;;5071102;28;20048;-76
2023/02/06 04:37:30;;;;;;;0.98;0.98;;;;;;;;;;5072002;28;20044;-75
2023/02/06 04:39:59;;;;;;;0.60;0.60;;;;;;;;;;5073633;28;20058;-78
2023/02/06 04:42:27;;;;;;;1.48;1.38;;;;;;;;;;5071247;28;20055;-77
2023/02/06 04:44:57;;;;;;;1.05;0.85;;;;;;;;;;5072257;28;20044;-77
2023/02/06 04:47:25;;;;;;;3.55;1.10;;;;;;;;;;5075348;28;20730;-76
2023/02/06 04:49:54;;;;;;;1.20;0.98;;;;;;;;;;5070871;28;20051;-77
2023/02/06 04:52:22;;;;;;;1.00;0.60;;;;;;;;;;5074471;28;20048;-77
2023/02/06 04:54:50;;;;;;;0.85;0.80;;;;;;;;;;5070817;28;20060;-76
2023/02/06 04:57:19;;;;;;;1.70;1.60;;;;;;;;;;5073411;28;20052;-76
2023/02/06 04:59:47;;;;;;;1.80;0.93;;;;;;;;;;5070829;28;20408;-77
2023/02/06 05:02:17;;;;;;;1.67;1.27;;;;;;;;;;5072913;28;20555;-76
2023/02/06 05:04:45;;;;;;;1.80;1.30;;;;;;;;;;5070076;28;20102;-76
2023/02/06 05:07:14;;;;;;;3.42;1.02;;;;;;;;;;5072224;28;20420;-76
2023/02/06 05:09:42;;;;;;;6.28;1.30;;;;;;;;;;5067736;28;20049;-76
2023/02/06 05:12:10;;;;;;;0.93;0.93;;;;;;;;;;5076846;28;20060;-76
2023/02/06 05:14:41;;;;;;;1.40;0.93;;;;;;;;;;5072761;28;20080;-76
2023/02/06 05:17:09;;;;;;;0.40;0.40;;;;;;;;;;5063059;28;20059;-76
2023/02/06 05:19:39;;;;;;;1.23;1.13;;;;;;;;;;5071699;28;20041;-76
2023/02/06 05:22:07;;;;;;;0.68;0.68;;;;;;;;;;5067589;28;20067;-76
2023/02/06 05:24:35;;;;;;;0.85;0.75;;;;;;;;;;5073250;28;20043;-77
2023/02/06 05:27:04;;;;;;;2.25;1.23;;;;;;;;;;5072959;28;20055;-76
2023/02/06 05:29:32;;;;;;;1.05;0.82;;;;;;;;;;5082828;28;20484;-77
2023/02/06 05:32:00;;;;;;;0.43;0.40;;;;;;;;;;5072326;28;20041;-77
2023/02/06 05:34:28;;;;;;;0.28;0.28;;;;;;;;;;5073313;28;20040;-76
2023/02/06 05:36:58;;;;;;;0.47;0.32;;;;;;;;;;5075681;28;20067;-76
2023/02/06 05:39:26;;;;;;;1.55;1.30;;;;;;;;;;5062278;28;20047;-77
2023/02/06 05:41:55;;;;;;;3.70;1.25;;;;;;;;;;5060718;28;20365;-77
2023/02/06 05:44:23;;;;;;;1.40;1.27;;;;;;;;;;5069371;28;20485;-76
2023/02/06 05:46:51;;;;;;;1.48;0.40;;;;;;;;;;5066215;28;20051;-75
2023/02/06 05:49:19;;;;;;;0.45;0.45;;;;;;;;;;5059854;28;20041;-77
2023/02/06 05:51:47;;;;;;;1.55;0.68;;;;;;;;;;5068113;28;20058;-76
2023/02/06 05:54:17;;;;;;;0.68;0.68;;;;;;;;;;5066797;28;20504;-76
2023/02/06 05:56:46;;;;;;;0.60;0.60;;;;;;;;;;5076999;28;20114;-76
2023/02/06 05:59:14;;;;;;;0.88;0.88;;;;;;;;;;5069608;28;20052;-75
2023/02/06 06:01:42;;;;;;;0.77;0.77;;;;;;;;;;5074777;28;20139;-77
2023/02/06 06:04:10;;;;;;;0.82;0.82;;;;;;;;;;5066928;28;20062;-77
2023/02/06 06:06:39;;;;;;;0.80;0.80;;;;;;;;;;5069282;28;20140;-77
2023/02/06 06:09:07;;;;;;;5.72;1.63;;;;;;;;;;5067678;28;20102;-76
2023/02/06 06:11:36;;;;;;;0.50;0.50;;;;;;;;;;5067801;28;20052;-73
2023/02/06 06:14:05;;;;;;;1.02;1.02;;;;;;;;;;5065569;28;20711;-76
2023/02/06 06:16:33;;;;;;;1.05;1.05;;;;;;;;;;5069604;28;20481;-75
2023/02/06 06:19:01;;;;;;;0.30;0.30;;;;;;;;;;5067048;28;20060;-78
2023/02/06 06:21:30;;;;;;;1.45;0.68;;;;;;;;;;5075195;28;20713;-79
2023/02/06 06:23:58;;;;;;;0.45;0.45;;;;;;;;;;5065204;28;20056;-77
2023/02/06 06:26:26;;;;;;;0.60;0.60;;;;;;;;;;5069588;28;20048;-77
2023/02/06 06:28:56;;;;;;;0.80;0.80;;;;;;;;;;5069589;28;20055;-78
2023/02/06 06:31:24;;;;;;;1.05;0.98;;;;;;;;;;5069853;28;20050;-78
2023/02/06 06:33:53;;;;;;;0.50;0.50;;;;;;;;;;5065864;28;20045;-77
2023/02/06 06:39:32;;;;;;;0.38;0.38;;;;;;;;;;5070018;28;20046;-76
2023/02/06 06:56:05;;;;;;;1.00;0.90;;;;;;;;;;5071012;28;20189;-78
2023/02/06 06:58:59;;;;;;;0.20;0.20;;;;;;;;;;5072854;28;20045;-77
2023/02/06 07:04:56;;;;;;;0.32;0.32;;;;;;;;;;5066693;28;20508;-78
2023/02/06 07:31:22;;;;;;;0.50;0.50;;;;;;;;;;4990529;28;20133;-78
2023/02/06 07:33:51;;;;;;;0.77;0.77;;;;;;;;;;4995620;28;20050;-78
2023/02/06 07:46:24;;;;;;;0.35;0.35;;;;;;;;;;4990998;28;20582;-78
2023/02/06 07:48:52;;;;;;;0.43;0.43;;;;;;;;;;4982588;28;20046;-78
2023/02/06 07:51:21;;;;;;;0.82;0.75;;;;;;;;;;4998708;28;20129;-78
2023/02/06 07:53:50;;;;;;;1.48;1.38;;;;;;;;;;4997514;28;20486;-78
2023/02/06 07:56:19;;;;;;;1.60;0.98;;;;;;;;;;4989623;28;20058;-78
2023/02/06 07:58:50;;;;;;;2.80;0.70;;;;;;;;;;5001727;28;20141;-78
2023/02/06 08:01:18;;;;;;;0.55;0.55;;;;;;;;;;5001928;28;20053;-76
2023/02/06 08:03:49;;;;;;;0.93;0.93;;;;;;;;;;5073505;28;20052;-77
2023/02/06 08:06:18;;;;;;;1.15;0.95;;;;;;;;;;5072232;28;20057;-77
2023/02/06 08:08:47;;;;;;;0.55;0.55;;;;;;;;;;5071992;28;20663;-77
2023/02/06 08:11:17;;;;;;;1.38;1.27;;;;;;;;;;5072682;28;20097;-73
2023/02/06 08:13:46;;;;;;;2.25;1.02;;;;;;;;;;5065637;28;20052;-77
2023/02/06 08:16:16;;;;;;;1.45;1.33;;;;;;;;;;5073335;28;20056;-77
2023/02/06 08:18:58;;;;;;;0.65;0.65;;;;;;;;;;5070525;28;20064;-78
2023/02/06 08:21:26;;;;;;;0.80;0.80;;;;;;;;;;5074680;28;20201;-78
2023/02/06 08:23:55;;;;;;;0.45;0.45;;;;;;;;;;5073152;28;20151;-79
2023/02/06 08:26:24;;;;;;;0.68;0.57;;;;;;;;;;5071332;28;20055;-79
2023/02/06 08:28:53;;;;;;;2.40;0.85;;;;;;;;;;5084184;28;20052;-79
2023/02/06 08:31:23;;;;;;;1.52;1.42;;;;;;;;;;5087505;28;20136;-79
2023/02/06 08:33:52;;;;;;;0.30;0.30;;;;;;;;;;5076778;28;20056;-78
2023/02/06 08:36:23;;;;;;;5.15;1.17;;;;;;;;;;5082820;28;20489;-79
2023/02/06 08:38:52;;;;;;;1.98;1.88;;;;;;;;;;5072399;28;20139;-79
2023/02/06 08:41:21;;;;;;;0.75;0.68;;;;;;;;;;5066408;28;20084;-79
2023/02/06 08:43:50;;;;;;;1.25;1.20;;;;;;;;;;5084284;28;20087;-79
2023/02/06 08:46:20;;;;;;;0.50;0.50;;;;;;;;;;5072178;28;20048;-79
2023/02/06 08:48:49;;;;;;;0.63;0.63;;;;;;;;;;5068077;28;20501;-79
2023/02/06 08:51:18;;;;;;;0.63;0.63;;;;;;;;;;5065130;28;20102;-79
2023/02/06 08:53:48;;;;;;;2.85;0.77;;;;;;;;;;5072163;28;20079;-78
2023/02/06 08:56:16;;;;;;;0.93;0.80;;;;;;;;;;5068740;28;20624;-80
2023/02/06 08:58:44;;;;;;;0.93;0.85;;;;;;;;;;5071528;28;20056;-81
2023/02/06 09:01:15;;;;;;;0.73;0.73;;;;;;;;;;5073272;28;20370;-81
2023/02/06 09:03:44;;;;;;;1.38;1.30;;;;;;;;;;5070746;28;20361;-80
2023/02/06 09:06:13;;;;;;;3.50;1.05;;;;;;;;;;5070721;28;20048;-81
2023/02/06 09:08:42;;;;;;;1.20;1.20;;;;;;;;;;5070250;28;20037;-81
2023/02/06 09:11:12;;;;;;;0.88;0.82;;;;;;;;;;5071708;28;20079;-81
2023/02/06 09:13:40;;;;;;;3.10;2.75;;;;;;;;;;5071035;28;20099;-80
2023/02/06 09:16:09;;;;;;;0.68;0.63;;;;;;;;;;5069837;28;20076;-80
2023/02/06 09:18:37;;;;;;;1.00;1.00;;;;;;;;;;5069978;28;20052;-80
2023/02/06 09:21:08;;;;;;;2.22;0.73;;;;;;;;;;5060020;28;20457;-79
2023/02/06 09:23:37;;;;;;;1.05;0.60;;;;;;;;;;5071435;28;20056;-79
2023/02/06 09:26:07;;;;;;;0.70;0.50;;;;;;;;;;5072210;28;20044;-80
2023/02/06 09:28:37;;;;;;;0.70;0.70;;;;;;;;;;5071130;28;20102;-79
2023/02/06 09:31:05;;;;;;;1.92;0.90;;;;;;;;;;5069038;28;20618;-79
2023/02/06 09:33:34;;;;;;;0.90;0.82;;;;;;;;;;5068041;28;20079;-78
2023/02/06 09:36:03;;;;;;;1.65;0.68;;;;;;;;;;5069897;28;20139;-80
2023/02/06 09:38:32;;;;;;;3.42;1.17;;;;;;;;;;5070895;28;20056;-80
2023/02/06 09:41:01;;;;;;;1.25;1.15;;;;;;;;;;5070575;28;20067;-80
2023/02/06 09:43:30;;;;;;;1.20;1.10;;;;;;;;;;5078209;28;20411;-80
2023/02/06 09:46:01;;;;;;;0.63;0.60;;;;;;;;;;5069932;28;20598;-80
2023/02/06 09:48:31;;;;;;;2.53;0.80;;;;;;;;;;5069279;28;20083;-78
2023/02/06 09:51:04;;;;;;;0.68;0.65;;;;;;;;;;5071153;28;20086;-78
2023/02/06 09:56:51;;;;;;;0.65;0.65;;;;;;;;;;5070862;28;20067;-81
2023/02/06 10:03:03;;;;;;;1.08;0.98;;;;;;;;;;5059027;28;20031;-81
2023/02/06 10:05:37;;;;;;;1.23;0.88;;;;;;;;;;5074842;28;20127;-79
2023/02/06 10:11:39;;;;;;;1.58;1.48;;;;;;;;;;5066557;28;20089;-77
2023/02/06 10:14:11;;;;;;;1.55;1.42;;;;;;;;;;5077998;28;20054;-77
2023/02/06 10:16:41;;;;;;;1.48;1.05;;;;;;;;;;5068129;28;20055;-77
2023/02/06 10:19:14;;;;;;;2.00;1.38;;;;;;;;;;5063393;28;20078;-78
2023/02/06 10:21:45;;;;;;;7.03;1.25;;;;;;;;;;5074396;28;20480;-80
2023/02/06 10:24:17;;;;;;;1.30;0.60;;;;;;;;;;5071044;28;20129;-80
2023/02/06 10:26:47;;;;;;;1.63;1.33;;;;;;;;;;5065813;28;20455;-79
2023/02/06 10:29:20;;;;;;;0.60;0.60;;;;;;;;;;5069202;28;20102;-80
2023/02/06 10:31:55;;;;;;;6.07;1.13;;;;;;;;;;5070560;28;20127;-77
2023/02/06 10:34:34;;;;;;;1.40;1.00;;;;;;;;;;5070290;28;20056;-79
2023/02/06 10:37:14;;;;;;;1.00;0.73;;;;;;;;;;5064902;28;20076;-79
2023/02/06 10:39:49;;;;;;;0.40;0.40;;;;;;;;;;5071249;28;20103;-76
2023/02/06 10:42:17;;;;;;;;;;;;;;;;;;5059464;28;20053;-77
2023/02/06 10:44:49;;;;;;;1.75;1.10;;;;;;;;;;5081826;28;20261;-78
2023/02/06 10:47:25;;;;;;;1.63;0.93;;;;;;;;;;5069202;28;20139;-78
2023/02/06 10:49:59;;;;;;;1.30;0.80;;;;;;;;;;5072360;28;20499;-79
2023/02/06 10:52:29;;;;;;;9.35;0.95;;;;;;;;;;5073856;28;20045;-74
2023/02/06 10:54:59;;;;;;;2.10;0.75;;;;;;;;;;5076312;28;20049;-75
2023/02/06 10:57:28;;;;;;;1.92;0.57;;;;;;;;;;5068344;28;20056;-77
2023/02/06 10:59:59;;;;;;;0.63;0.52;;;;;;;;;;5071354;28;20048;-76
2023/02/06 11:02:28;;;;;;;2.65;1.75;;;;;;;;;;5073705;28;20040;-78
2023/02/06 11:05:01;;;;;;;0.80;0.65;;;;;;;;;;5073266;28;20044;-78
2023/02/06 11:07:31;;;;;;;0.43;0.43;;;;;;;;;;5071232;28;20402;-78
2023/02/06 11:09:59;;;;;;;0.75;0.75;;;;;;;;;;5061719;28;20052;-77
2023/02/06 11:12:33;;;;;;;2.05;1.13;;;;;;;;;;5072359;28;20589;-76
2023/02/06 11:15:04;;;;;;;1.95;0.93;;;;;;;;;;5070538;28;20049;-78
2023/02/06 11:17:33;;;;;;;1.27;0.90;;;;;;;;;;5058965;28;20055;-77
2023/02/06 11:20:15;;;;;;;5.43;1.10;;;;;;;;;;5071597;28;20127;-74
2023/02/06 11:22:44;;;;;;;1.45;0.80;;;;;;;;;;5080365;28;20055;-77
2023/02/06 11:25:23;;;;;;;1.30;1.20;;;;;;;;;;5067229;28;20044;-77
2023/02/06 11:27:51;;;;;;;4.93;1.67;;;;;;;;;;5067329;28;20060;-77
2023/02/06 11:30:26;;;;;;;2.55;1.45;;;;;;;;;;5069287;28;20051;-76
2023/02/06 11:32:57;;;;;;;2.53;1.13;;;;;;;;;;5068021;28;20048;-77
2023/02/06 11:35:35;;;;;;;1.05;0.90;;;;;;;;;;5071457;28;20051;-78
2023/02/06 11:38:14;;;;;;;0.40;0.40;;;;;;;;;;5075627;28;20493;-77
2023/02/06 11:40:42;;;;;;;0.77;0.77;;;;;;;;;;5070657;28;20489;-78
2023/02/06 11:43:16;;;;;;;2.63;1.08;;;;;;;;;;5068139;28;20056;-78
2023/02/06 11:45:46;;;;;;;3.20;1.52;;;;;;;;;;5072637;28;20484;-76
2023/02/06 11:48:32;;;;;;;0.73;0.73;;;;;;;;;;5077272;28;20049;-79
2023/02/06 11:51:01;;;;;;;0.57;0.55;;;;;;;;;;5065115;28;20045;-77
2023/02/06 11:53:30;;;;;;;0.77;0.77;;;;;;;;;;5068180;28;20051;-77
2023/02/06 11:56:00;;;;;;;0.90;0.85;;;;;;;;;;5074686;28;20497;-77
2023/02/06 11:58:31;;;;;;;0.73;0.73;;;;;;;;;;5072910;28;20493;-77
2023/02/06 12:01:01;;;;;;;1.23;0.90;;;;;;;;;;5074476;28;20045;-78
2023/02/06 12:03:31;;;;;;;1.85;1.13;;;;;;;;;;5074137;28;20048;-77
2023/02/06 12:06:03;;;;;;;0.93;0.70;;;;;;;;;;5072672;28;20055;-78
2023/02/06 12:08:37;;;;;;;1.45;1.35;;;;;;;;;;5072312;28;20052;-78
2023/02/06 12:11:10;;;;;;;1.17;0.95;;;;;;;;;;5062204;28;20045;-77
2023/02/06 12:13:42;;;;;;;2.28;1.35;;;;;;;;;;5073374;28;20489;-77
2023/02/06 12:16:13;;;;;;;1.48;0.77;;;;;;;;;;5066266;28;20049;-78
2023/02/06 12:18:43;;;;;;;3.03;1.05;;;;;;;;;;5064756;28;20106;-77
2023/02/06 12:21:14;;;;;;;1.92;0.80;;;;;;;;;;5083142;28;20049;-75
2023/02/06 12:23:44;;;;;;;3.72;1.05;;;;;;;;;;5071245;28;20481;-77
2023/02/06 12:26:13;;;;;;;1.58;1.48;;;;;;;;;;5071671;28;20481;-77
2023/02/06 12:28:46;;;;;;;1.65;1.00;;;;;;;;;;5070317;28;20079;-76
2023/02/06 12:31:17;;;;;;;0.20;0.20;;;;;;;;;;5072630;28;20079;-78
2023/02/06 12:33:49;;;;;;;0.63;0.63;;;;;;;;;;5068752;28;20036;-73
2023/02/06 12:36:20;;;;;;;0.55;0.55;;;;;;;;;;5066464;28;20052;-78
2023/02/06 12:38:52;;;;;;;6.55;2.25;;;;;;;;;;5069817;28;20079;-77
2023/02/06 12:41:38;;;;;;;0.52;0.52;;;;;;;;;;5083608;28;20044;-77
2023/02/06 12:44:12;;;;;;;1.08;0.57;;;;;;;;;;5069271;28;20459;-76
2023/02/06 12:46:42;;;;;;;1.25;0.88;;;;;;;;;;5075105;28;20045;-77
2023/02/06 12:49:14;;;;;;;1.33;1.23;;;;;;;;;;5070937;28;20066;-76
2023/02/06 12:51:50;;;;;;;0.70;0.70;;;;;;;;;;5075703;28;20097;-75
2023/02/06 12:54:22;;;;;;;0.70;0.52;;;;;;;;;;5062955;28;20052;-79
2023/02/06 12:56:52;;;;;;;3.95;1.75;;;;;;;;;;5066548;28;20047;-81
2023/02/06 12:59:38;;;;;;;4.18;0.75;;;;;;;;;;5064926;28;20059;-81
2023/02/06 13:02:28;;;;;;;1.25;0.43;;;;;;;;;;5061679;28;20386;-81
2023/02/06 13:05:02;;;;;;;0.68;0.68;;;;;;;;;;5066001;28;20070;-78
2023/02/06 13:07:41;;;;;;;2.78;1.30;;;;;;;;;;5069462;28;20053;-78
2023/02/06 13:10:17;;;;;;;3.88;1.38;;;;;;;;;;5072123;28;20044;-80
2023/02/06 13:12:53;;;;;;;1.02;1.02;;;;;;;;;;5081958;28;20048;-77
2023/02/06 13:15:23;;;;;;;2.60;1.50;;;;;;;;;;5071292;28;20580;-80
2023/02/06 13:17:53;;;;;;;3.80;1.25;;;;;;;;;;5077025;28;20071;-80
2023/02/06 13:20:23;;;;;;;2.10;1.30;;;;;;;;;;5071997;28;20041;-80
2023/02/06 13:26:34;;;;;;;2.03;0.45;;;;;;;;;;5067023;28;20115;-79
2023/02/06 13:29:04;;;;;;;0.57;0.57;;;;;;;;;;5073177;28;20048;-80
2023/02/06 13:31:34;;;;;;;1.25;0.80;;;;;;;;;;5067480;28;20052;-80
2023/02/06 13:34:06;;;;;;;1.33;0.80;;;;;;;;;;5071492;28;20059;-79
2023/02/06 13:36:42;;;;;;;1.00;0.95;;;;;;;;;;5070624;28;20512;-79
2023/02/06 13:39:15;;;;;;;1.63;1.20;;;;;;;;;;5070805;28;20103;-79
2023/02/06 13:45:20;;;;;;;1.15;0.82;;;;;;;;;;5064865;28;20054;-74
2023/02/06 13:48:05;;;;;;;2.30;0.77;;;;;;;;;;5074766;28;20056;-79
2023/02/06 13:50:33;;;;;;;;;;;;;;;;;;5065327;28;20049;-80
2023/02/06 13:53:11;;;;;;;0.30;0.30;;;;;;;;;;5071074;28;19968;-79
2023/02/06 13:55:47;;;;;;;0.50;0.50;;;;;;;;;;5071528;28;20344;-79
2023/02/06 13:58:25;;;;;;;1.50;0.52;;;;;;;;;;5066203;28;20048;-79
2023/02/06 14:00:56;;;;;;;0.47;0.47;;;;;;;;;;5071365;28;20132;-79
2023/02/06 14:03:26;;;;;;;1.00;0.82;;;;;;;;;;5081128;28;20048;-81
2023/02/06 14:05:59;;;;;;;4.53;0.70;;;;;;;;;;5071569;28;20401;-79
2023/02/06 14:08:31;;;;;;;2.50;1.17;;;;;;;;;;5068442;28;21468;-75
2023/02/06 14:11:12;;;;;;;3.38;1.45;;;;;;;;;;5071833;28;20561;-78
2023/02/06 14:13:49;;;;;;;2.10;0.77;;;;;;;;;;5061633;28;20099;-77
2023/02/06 14:16:37;;;;;;;7.07;0.93;;;;;;;;;;5070567;28;20140;-80
2023/02/06 14:19:11;;;;;;;1.95;1.60;;;;;;;;;;5061342;28;20064;-78
2023/02/06 14:21:45;;;;;;;0.73;0.73;;;;;;;;;;5060201;28;20099;-79
2023/02/06 14:24:33;;;;;;;0.77;0.77;;;;;;;;;;5079947;28;20119;-78
2023/02/06 14:27:09;;;;;;;1.00;0.95;;;;;;;;;;5057824;28;20661;-79
2023/02/06 14:29:45;;;;;;;1.10;1.08;;;;;;;;;;5069361;28;20056;-78
2023/02/06 14:32:24;;;;;;;3.78;1.13;;;;;;;;;;5069801;28;20486;-79
2023/02/06 14:34:59;;;;;;;0.75;0.50;;;;;;;;;;5078821;28;20094;-77
2023/02/06 14:37:35;;;;;;;1.60;0.70;;;;;;;;;;5070604;28;20123;-78
2023/02/06 14:40:04;;;;;;;0.43;0.43;;;;;;;;;;5070198;28;20135;-76
2023/02/06 14:42:33;;;;;;;0.40;0.40;;;;;;;;;;5065864;28;20090;-76
2023/02/06 14:45:03;;;;;;;1.15;1.05;;;;;;;;;;5078355;28;20076;-77
2023/02/06 14:47:38;;;;;;;1.10;1.10;;;;;;;;;;5076505;28;20060;-76
2023/02/06 14:50:08;;;;;;;0.80;0.80;;;;;;;;;;5070744;28;20481;-76
2023/02/06 14:52:37;;;;;;;3.53;1.05;;;;;;;;;;5074544;28;20090;-79
2023/02/06 14:55:20;;;;;;;0.50;0.50;;;;;;;;;;5078271;28;20040;-75
2023/02/06 14:57:50;;;;;;;0.85;0.75;;;;;;;;;;5070748;28;20505;-76
2023/02/06 15:00:19;;;;;;;3.53;1.42;;;;;;;;;;5070126;28;20044;-75
2023/02/06 15:03:02;;;;;;;1.95;1.13;;;;;;;;;;5070727;28;20469;-76
2023/02/06 15:05:31;;;;;;;0.80;0.73;;;;;;;;;;5074527;28;20095;-76
2023/02/06 15:08:00;;;;;;;0.80;0.80;;;;;;;;;;5082273;28;20080;-76
2023/02/06 15:10:30;;;;;;;2.45;1.02;;;;;;;;;;5071984;28;20076;-76
2023/02/06 15:12:58;;;;;;;0.85;0.70;;;;;;;;;;5064116;28;20578;-75
2023/02/06 15:15:28;;;;;;;1.30;1.23;;;;;;;;;;5068941;28;20060;-77
2023/02/06 15:17:59;;;;;;;3.20;2.08;;;;;;;;;;5070246;28;20052;-76
2023/02/06 15:20:29;;;;;;;0.88;0.88;;;;;;;;;;5064299;28;20048;-76
2023/02/06 15:22:59;;;;;;;1.45;0.63;;;;;;;;;;5073002;28;20044;-78
2023/02/06 15:25:49;;;;;;;1.73;1.30;;;;;;;;;;5069313;28;20501;-75
2023/02/06 15:28:19;;;;;;;1.17;1.10;;;;;;;;;;5065276;28;20059;-78
2023/02/06 15:30:53;;;;;;;1.15;1.13;;;;;;;;;;5067731;28;20299;-76
2023/02/06 15:33:26;;;;;;;0.50;0.50;;;;;;;;;;5069120;28;20453;-75
2023/02/06 15:35:56;;;;;;;0.20;0.20;;;;;;;;;;5069255;28;20501;-77
2023/02/06 15:38:25;;;;;;;1.10;1.00;;;;;;;;;;5076294;28;20132;-73
2023/02/06 15:40:55;;;;;;;4.03;1.05;;;;;;;;;;5077144;28;20127;-77
2023/02/06 15:43:25;;;;;;;0.68;0.68;;;;;;;;;;5077356;28;20048;-77
2023/02/06 15:45:55;;;;;;;1.23;0.80;;;;;;;;;;5075521;28;20138;-76
2023/02/06 15:48:26;;;;;;;0.80;0.80;;;;;;;;;;5072672;28;20084;-76
2023/02/06 15:50:55;;;;;;;1.60;0.82;;;;;;;;;;5074709;28;20148;-75
2023/02/06 15:53:30;;;;;;;1.80;1.20;;;;;;;;;;5070157;28;20135;-76
2023/02/06 15:55:58;;;;;;;;;;;;;;;;;;5072898;28;20057;-76
2023/02/06 15:58:27;;;;;;;1.75;0.82;;;;;;;;;;5078894;28;19985;-71
2023/02/06 16:00:56;;;;;;;1.50;1.27;;;;;;;;;;5071078;28;20051;-72
2023/02/06 16:03:28;;;;;;;2.97;2.25;;;;;;;;;;5067162;28;20044;-72
2023/02/06 16:05:57;;;;;;;0.95;0.52;;;;;;;;;;5070615;28;20044;-72
2023/02/06 16:08:27;;;;;;;0.40;0.40;;;;;;;;;;5071082;28;20060;-73
2023/02/06 16:10:58;;;;;;;0.55;0.55;;;;;;;;;;5071435;28;20476;-72
2023/02/06 16:13:28;;;;;;;0.70;0.70;;;;;;;;;;5069023;28;20048;-71
2023/02/06 16:16:05;;;;;;;0.40;0.40;;;;;;;;;;5076888;28;20142;-70
2023/02/06 16:18:36;;;;;;;1.88;0.95;;;;;;;;;;5067313;28;20454;-70